sensor_id;sensor_type;location;lat;lon;timestamp;pressure;altitude;pressure_sealevel;temperature;humidity
65897;BME280;52677;50.898;10.854;2023-08-12T00:00:53;98828.34;;;16.02;100.00
65897;BME280;52677;50.898;10.854;2023-08-12T00:02:53;98829.13;;;16.02;100.00
65897;BME280;52677;50.898;10.854;2023-08-12T00:04:53;98833.09;;;16.05;100.00
65897;BME280;52677;50.898;10.854;2023-08-12T00:06:54;98824.34;;;16.03;100.00
65897;BME280;52677;50.898;10.854;2023-08-12T00:08:54;98834.31;;;16.04;100.00
65897;BME280;52677;50.898;10.854;2023-08-12T00:10:54;98817.97;;;16.02;100.00
65897;BME280;52677;50.898;10.854;2023-08-12T00:12:55;98821.97;;;16.01;100.00
65897;BME280;52677;50.898;10.854;2023-08-12T00:14:55;98818.75;;;16.03;100.00
65897;BME280;52677;50.898;10.854;2023-08-12T00:16:55;98818.41;;;15.97;100.00
65897;BME280;52677;50.898;10.854;2023-08-12T00:18:56;98821.59;;;15.96;100.00
65897;BME280;52677;50.898;10.854;2023-08-12T00:20:56;98826.38;;;15.95;100.00
65897;BME280;52677;50.898;10.854;2023-08-12T00:22:57;98826.41;;;15.92;100.00
65897;BME280;52677;50.898;10.854;2023-08-12T00:24:58;98818.03;;;15.88;100.00
65897;BME280;52677;50.898;10.854;2023-08-12T00:26:58;98814.88;;;15.83;100.00
65897;BME280;52677;50.898;10.854;2023-08-12T00:28:59;98809.31;;;15.79;100.00
65897;BME280;52677;50.898;10.854;2023-08-12T00:30:59;98812.50;;;15.78;100.00
65897;BME280;52677;50.898;10.854;2023-08-12T00:32:59;98810.53;;;15.75;100.00
65897;BME280;52677;50.898;10.854;2023-08-12T00:35:00;98804.16;;;15.70;100.00
65897;BME280;52677;50.898;10.854;2023-08-12T00:37:00;98810.94;;;15.73;100.00
65897;BME280;52677;50.898;10.854;2023-08-12T00:39:01;98809.34;;;15.68;100.00
65897;BME280;52677;50.898;10.854;2023-08-12T00:41:01;98810.53;;;15.60;100.00
65897;BME280;52677;50.898;10.854;2023-08-12T00:43:01;98807.78;;;15.57;100.00
65897;BME280;52677;50.898;10.854;2023-08-12T00:45:08;98803.78;;;15.54;100.00
65897;BME280;52677;50.898;10.854;2023-08-12T00:47:09;98808.16;;;15.55;100.00
65897;BME280;52677;50.898;10.854;2023-08-12T00:49:10;98797.81;;;15.52;100.00
65897;BME280;52677;50.898;10.854;2023-08-12T00:51:11;98806.97;;;15.53;100.00
65897;BME280;52677;50.898;10.854;2023-08-12T00:53:12;98800.22;;;15.46;100.00
65897;BME280;52677;50.898;10.854;2023-08-12T00:55:14;98789.91;;;15.40;100.00
65897;BME280;52677;50.898;10.854;2023-08-12T00:57:15;98789.94;;;15.33;100.00
65897;BME280;52677;50.898;10.854;2023-08-12T00:59:16;98797.47;;;15.36;100.00
65897;BME280;52677;50.898;10.854;2023-08-12T01:01:17;98780.78;;;15.32;100.00
65897;BME280;52677;50.898;10.854;2023-08-12T01:03:18;98785.94;;;15.30;100.00
65897;BME280;52677;50.898;10.854;2023-08-12T01:05:19;98793.13;;;15.31;100.00
65897;BME280;52677;50.898;10.854;2023-08-12T01:07:20;98786.75;;;15.31;100.00
65897;BME280;52677;50.898;10.854;2023-08-12T01:09:20;98796.69;;;15.32;100.00
65897;BME280;52677;50.898;10.854;2023-08-12T01:11:25;98784.34;;;15.29;100.00
65897;BME280;52677;50.898;10.854;2023-08-12T01:13:49;98782.34;;;15.33;100.00
65897;BME280;52677;50.898;10.854;2023-08-12T01:15:53;98788.72;;;15.34;100.00
65897;BME280;52677;50.898;10.854;2023-08-12T01:17:55;98778.38;;;15.31;100.00
65897;BME280;52677;50.898;10.854;2023-08-12T01:19:59;98785.13;;;15.30;100.00
65897;BME280;52677;50.898;10.854;2023-08-12T01:22:01;98780.38;;;15.27;100.00
65897;BME280;52677;50.898;10.854;2023-08-12T01:24:02;98773.59;;;15.28;100.00
65897;BME280;52677;50.898;10.854;2023-08-12T01:26:03;98771.25;;;15.23;100.00
65897;BME280;52677;50.898;10.854;2023-08-12T01:28:04;98773.63;;;15.21;100.00
65897;BME280;52677;50.898;10.854;2023-08-12T01:30:05;98767.28;;;15.16;100.00
65897;BME280;52677;50.898;10.854;2023-08-12T01:32:13;98760.91;;;15.16;100.00
65897;BME280;52677;50.898;10.854;2023-08-12T01:34:22;98762.91;;;15.15;100.00
65897;BME280;52677;50.898;10.854;2023-08-12T01:36:29;98753.72;;;15.11;100.00
65897;BME280;52677;50.898;10.854;2023-08-12T01:38:31;98758.13;;;15.09;100.00
65897;BME280;52677;50.898;10.854;2023-08-12T01:40:33;98753.75;;;15.08;100.00
65897;BME280;52677;50.898;10.854;2023-08-12T01:42:36;98751.38;;;15.06;100.00
65897;BME280;52677;50.898;10.854;2023-08-12T01:44:37;98754.16;;;15.03;100.00
65897;BME280;52677;50.898;10.854;2023-08-12T01:46:38;98742.59;;;14.97;100.00
65897;BME280;52677;50.898;10.854;2023-08-12T01:48:38;98741.03;;;14.96;100.00
65897;BME280;52677;50.898;10.854;2023-08-12T01:50:38;98745.41;;;14.97;100.00
65897;BME280;52677;50.898;10.854;2023-08-12T01:52:39;98740.63;;;15.01;100.00
65897;BME280;52677;50.898;10.854;2023-08-12T01:54:39;98736.22;;;15.04;100.00
65897;BME280;52677;50.898;10.854;2023-08-12T01:56:39;98729.47;;;15.01;100.00
65897;BME280;52677;50.898;10.854;2023-08-12T01:58:40;98741.00;;;15.03;100.00
65897;BME280;52677;50.898;10.854;2023-08-12T02:00:40;98729.88;;;15.03;100.00
65897;BME280;52677;50.898;10.854;2023-08-12T02:02:40;98733.44;;;15.04;100.00
65897;BME280;52677;50.898;10.854;2023-08-12T02:04:41;98725.50;;;15.02;100.00
65897;BME280;52677;50.898;10.854;2023-08-12T02:06:43;98727.47;;;15.05;100.00
65897;BME280;52677;50.898;10.854;2023-08-12T02:08:43;98725.88;;;15.04;100.00
65897;BME280;52677;50.898;10.854;2023-08-12T02:10:43;98731.44;;;15.04;100.00
65897;BME280;52677;50.898;10.854;2023-08-12T02:12:44;98723.50;;;15.03;100.00
65897;BME280;52677;50.898;10.854;2023-08-12T02:14:44;98722.72;;;15.02;100.00
65897;BME280;52677;50.898;10.854;2023-08-12T02:16:44;98725.88;;;15.04;100.00
65897;BME280;52677;50.898;10.854;2023-08-12T02:18:45;98724.69;;;15.05;100.00
65897;BME280;52677;50.898;10.854;2023-08-12T02:20:46;98725.88;;;15.08;100.00
65897;BME280;52677;50.898;10.854;2023-08-12T02:22:47;98723.91;;;15.08;100.00
65897;BME280;52677;50.898;10.854;2023-08-12T02:24:47;98722.69;;;15.09;100.00
65897;BME280;52677;50.898;10.854;2023-08-12T02:26:47;98727.47;;;15.09;100.00
65897;BME280;52677;50.898;10.854;2023-08-12T02:28:48;98722.28;;;15.11;100.00
65897;BME280;52677;50.898;10.854;2023-08-12T02:30:48;98725.06;;;15.14;100.00
65897;BME280;52677;50.898;10.854;2023-08-12T02:32:48;98722.69;;;15.16;100.00
65897;BME280;52677;50.898;10.854;2023-08-12T02:34:49;98718.69;;;15.17;100.00
65897;BME280;52677;50.898;10.854;2023-08-12T02:36:50;98704.38;;;15.15;100.00
65897;BME280;52677;50.898;10.854;2023-08-12T02:38:50;98704.75;;;15.17;100.00
65897;BME280;52677;50.898;10.854;2023-08-12T02:40:50;98705.53;;;15.18;100.00
65897;BME280;52677;50.898;10.854;2023-08-12T02:42:51;98700.00;;;15.14;100.00
65897;BME280;52677;50.898;10.854;2023-08-12T02:44:51;98703.16;;;15.16;100.00
65897;BME280;52677;50.898;10.854;2023-08-12T02:46:51;98699.16;;;15.14;100.00
65897;BME280;52677;50.898;10.854;2023-08-12T02:48:52;98700.00;;;15.14;100.00
65897;BME280;52677;50.898;10.854;2023-08-12T02:50:52;98686.44;;;15.13;100.00
65897;BME280;52677;50.898;10.854;2023-08-12T02:52:52;98692.00;;;15.13;100.00
65897;BME280;52677;50.898;10.854;2023-08-12T02:54:53;98700.81;;;15.04;100.00
65897;BME280;52677;50.898;10.854;2023-08-12T02:56:55;98694.44;;;15.04;100.00
65897;BME280;52677;50.898;10.854;2023-08-12T02:58:55;98691.25;;;15.02;100.00
65897;BME280;52677;50.898;10.854;2023-08-12T03:00:55;98686.88;;;15.01;100.00
65897;BME280;52677;50.898;10.854;2023-08-12T03:02:56;98685.28;;;15.03;100.00
65897;BME280;52677;50.898;10.854;2023-08-12T03:04:56;98676.94;;;15.03;100.00
65897;BME280;52677;50.898;10.854;2023-08-12T03:06:56;98679.31;;;15.05;100.00
65897;BME280;52677;50.898;10.854;2023-08-12T03:08:57;98682.88;;;15.05;100.00
65897;BME280;52677;50.898;10.854;2023-08-12T03:10:58;98678.09;;;15.09;100.00
65897;BME280;52677;50.898;10.854;2023-08-12T03:12:59;98674.53;;;15.05;100.00
65897;BME280;52677;50.898;10.854;2023-08-12T03:15:00;98674.94;;;15.04;100.00
65897;BME280;52677;50.898;10.854;2023-08-12T03:17:00;98669.34;;;15.04;100.00
65897;BME280;52677;50.898;10.854;2023-08-12T03:19:00;98668.97;;;15.02;100.00
65897;BME280;52677;50.898;10.854;2023-08-12T03:21:05;98671.34;;;15.03;100.00
65897;BME280;52677;50.898;10.854;2023-08-12T03:23:05;98672.53;;;15.06;100.00
65897;BME280;52677;50.898;10.854;2023-08-12T03:25:06;98670.16;;;15.04;100.00
65897;BME280;52677;50.898;10.854;2023-08-12T03:27:06;98665.38;;;15.05;100.00
65897;BME280;52677;50.898;10.854;2023-08-12T03:29:07;98677.72;;;15.04;100.00
65897;BME280;52677;50.898;10.854;2023-08-12T03:31:07;98670.16;;;15.04;100.00
65897;BME280;52677;50.898;10.854;2023-08-12T03:33:07;98666.16;;;15.05;100.00
65897;BME280;52677;50.898;10.854;2023-08-12T03:35:08;98672.56;;;15.02;100.00
65897;BME280;52677;50.898;10.854;2023-08-12T03:37:09;98680.13;;;15.02;100.00
65897;BME280;52677;50.898;10.854;2023-08-12T03:39:09;98672.56;;;14.99;100.00
65897;BME280;52677;50.898;10.854;2023-08-12T03:41:09;98667.78;;;14.99;100.00
65897;BME280;52677;50.898;10.854;2023-08-12T03:43:10;98675.38;;;14.99;100.00
65897;BME280;52677;50.898;10.854;2023-08-12T03:45:10;98669.78;;;14.99;100.00
65897;BME280;52677;50.898;10.854;2023-08-12T03:47:10;98668.59;;;15.00;100.00
65897;BME280;52677;50.898;10.854;2023-08-12T03:49:11;98668.56;;;15.03;100.00
65897;BME280;52677;50.898;10.854;2023-08-12T03:51:11;98661.00;;;15.04;100.00
65897;BME280;52677;50.898;10.854;2023-08-12T03:53:11;98665.00;;;15.06;100.00
65897;BME280;52677;50.898;10.854;2023-08-12T03:55:12;98663.78;;;15.07;100.00
65897;BME280;52677;50.898;10.854;2023-08-12T03:57:12;98665.00;;;15.06;100.00
65897;BME280;52677;50.898;10.854;2023-08-12T03:59:13;98671.34;;;15.03;100.00
65897;BME280;52677;50.898;10.854;2023-08-12T04:01:13;98657.44;;;15.00;100.00
65897;BME280;52677;50.898;10.854;2023-08-12T04:03:13;98660.63;;;15.02;100.00
65897;BME280;52677;50.898;10.854;2023-08-12T04:05:14;98672.56;;;15.02;100.00
65897;BME280;52677;50.898;10.854;2023-08-12T04:07:14;98666.97;;;15.02;100.00
65897;BME280;52677;50.898;10.854;2023-08-12T04:09:14;98674.94;;;15.07;100.00
65897;BME280;52677;50.898;10.854;2023-08-12T04:11:15;98672.53;;;15.09;100.00
65897;BME280;52677;50.898;10.854;2023-08-12T04:13:16;98667.34;;;15.11;100.00
65897;BME280;52677;50.898;10.854;2023-08-12T04:15:16;98675.72;;;15.15;100.00
65897;BME280;52677;50.898;10.854;2023-08-12T04:17:16;98667.34;;;15.15;100.00
65897;BME280;52677;50.898;10.854;2023-08-12T04:19:17;98675.28;;;15.20;100.00
65897;BME280;52677;50.898;10.854;2023-08-12T04:21:17;98676.84;;;15.21;100.00
65897;BME280;52677;50.898;10.854;2023-08-12T04:23:18;98672.06;;;15.22;100.00
65897;BME280;52677;50.898;10.854;2023-08-12T04:25:18;98674.06;;;15.25;100.00
65897;BME280;52677;50.898;10.854;2023-08-12T04:27:18;98679.22;;;15.26;100.00
65897;BME280;52677;50.898;10.854;2023-08-12T04:29:19;98681.19;;;15.29;100.00
65897;BME280;52677;50.898;10.854;2023-08-12T04:31:19;98675.25;;;15.31;100.00
65897;BME280;52677;50.898;10.854;2023-08-12T04:33:19;98674.03;;;15.32;100.00
65897;BME280;52677;50.898;10.854;2023-08-12T04:35:20;98677.59;;;15.36;100.00
65897;BME280;52677;50.898;10.854;2023-08-12T04:37:20;98678.38;;;15.40;100.00
65897;BME280;52677;50.898;10.854;2023-08-12T04:39:21;98676.41;;;15.40;100.00
65897;BME280;52677;50.898;10.854;2023-08-12T04:41:22;98685.91;;;15.50;100.00
65897;BME280;52677;50.898;10.854;2023-08-12T04:43:25;98687.91;;;15.46;100.00
65897;BME280;52677;50.898;10.854;2023-08-12T04:45:26;98687.09;;;15.49;100.00
65897;BME280;52677;50.898;10.854;2023-08-12T04:47:27;98680.31;;;15.46;100.00
65897;BME280;52677;50.898;10.854;2023-08-12T04:49:27;98681.13;;;15.47;100.00
65897;BME280;52677;50.898;10.854;2023-08-12T04:51:28;98679.16;;;15.48;100.00
65897;BME280;52677;50.898;10.854;2023-08-12T04:53:28;98673.53;;;15.51;100.00
65897;BME280;52677;50.898;10.854;2023-08-12T04:55:29;98677.53;;;15.50;100.00
65897;BME280;52677;50.898;10.854;2023-08-12T04:57:29;98672.75;;;15.51;100.00
65897;BME280;52677;50.898;10.854;2023-08-12T04:59:29;98676.72;;;15.57;100.00
65897;BME280;52677;50.898;10.854;2023-08-12T05:01:30;98669.94;;;15.54;100.00
65897;BME280;52677;50.898;10.854;2023-08-12T05:03:30;98681.09;;;15.58;100.00
65897;BME280;52677;50.898;10.854;2023-08-12T05:05:30;98673.94;;;15.57;100.00
65897;BME280;52677;50.898;10.854;2023-08-12T05:07:30;98676.69;;;15.60;100.00
65897;BME280;52677;50.898;10.854;2023-08-12T05:09:31;98671.94;;;15.61;100.00
65897;BME280;52677;50.898;10.854;2023-08-12T05:11:31;98677.50;;;15.64;100.00
65897;BME280;52677;50.898;10.854;2023-08-12T05:13:32;98670.69;;;15.69;100.00
65897;BME280;52677;50.898;10.854;2023-08-12T05:15:32;98666.28;;;15.75;100.00
65897;BME280;52677;50.898;10.854;2023-08-12T05:17:32;98665.44;;;15.78;100.00
65897;BME280;52677;50.898;10.854;2023-08-12T05:19:33;98659.44;;;15.83;100.00
65897;BME280;52677;50.898;10.854;2023-08-12T05:21:33;98659.81;;;15.85;100.00
65897;BME280;52677;50.898;10.854;2023-08-12T05:23:33;98654.63;;;15.87;100.00
65897;BME280;52677;50.898;10.854;2023-08-12T05:25:34;98643.06;;;15.89;100.00
65897;BME280;52677;50.898;10.854;2023-08-12T05:27:34;98648.19;;;15.94;100.00
65897;BME280;52677;50.898;10.854;2023-08-12T05:29:34;98651.78;;;15.98;100.00
65897;BME280;52677;50.898;10.854;2023-08-12T05:31:35;98640.94;;;16.04;100.00
65897;BME280;52677;50.898;10.854;2023-08-12T05:33:35;98645.31;;;16.05;100.00
65897;BME280;52677;50.898;10.854;2023-08-12T05:35:35;98643.69;;;16.11;100.00
65897;BME280;52677;50.898;10.854;2023-08-12T05:37:36;98645.66;;;16.14;100.00
65897;BME280;52677;50.898;10.854;2023-08-12T05:39:36;98652.00;;;16.18;100.00
65897;BME280;52677;50.898;10.854;2023-08-12T05:41:36;98655.94;;;16.24;100.00
65897;BME280;52677;50.898;10.854;2023-08-12T05:43:37;98658.28;;;16.29;100.00
65897;BME280;52677;50.898;10.854;2023-08-12T05:45:37;98658.28;;;16.33;100.00
65897;BME280;52677;50.898;10.854;2023-08-12T05:47:37;98657.44;;;16.36;100.00
65897;BME280;52677;50.898;10.854;2023-08-12T05:49:38;98661.00;;;16.40;100.00
65897;BME280;52677;50.898;10.854;2023-08-12T05:51:38;98662.97;;;16.43;100.00
65897;BME280;52677;50.898;10.854;2023-08-12T05:53:38;98668.50;;;16.46;100.00
65897;BME280;52677;50.898;10.854;2023-08-12T05:55:39;98670.13;;;16.47;100.00
65897;BME280;52677;50.898;10.854;2023-08-12T05:57:39;98669.31;;;16.47;100.00
65897;BME280;52677;50.898;10.854;2023-08-12T05:59:39;98670.84;;;16.51;100.00
65897;BME280;52677;50.898;10.854;2023-08-12T06:01:40;98652.88;;;16.52;100.00
65897;BME280;52677;50.898;10.854;2023-08-12T06:03:40;98653.31;;;16.51;100.00
65897;BME280;52677;50.898;10.854;2023-08-12T06:05:41;98646.56;;;16.48;100.00
65897;BME280;52677;50.898;10.854;2023-08-12T06:07:42;98658.53;;;16.49;100.00
65897;BME280;52677;50.898;10.854;2023-08-12T06:09:43;98654.09;;;16.51;100.00
65897;BME280;52677;50.898;10.854;2023-08-12T06:11:43;98648.09;;;16.53;100.00
65897;BME280;52677;50.898;10.854;2023-08-12T06:13:43;98651.69;;;16.53;100.00
65897;BME280;52677;50.898;10.854;2023-08-12T06:15:44;98656.03;;;16.58;100.00
65897;BME280;52677;50.898;10.854;2023-08-12T06:17:44;98653.63;;;16.60;100.00
65897;BME280;52677;50.898;10.854;2023-08-12T06:19:45;98651.97;;;16.63;100.00
65897;BME280;52677;50.898;10.854;2023-08-12T06:21:46;98664.34;;;16.69;100.00
65897;BME280;52677;50.898;10.854;2023-08-12T06:23:46;98669.13;;;16.72;100.00
65897;BME280;52677;50.898;10.854;2023-08-12T06:25:46;98669.44;;;16.77;100.00
65897;BME280;52677;50.898;10.854;2023-08-12T06:27:47;98665.41;;;16.82;100.00
65897;BME280;52677;50.898;10.854;2023-08-12T06:29:47;98672.94;;;16.85;100.00
65897;BME280;52677;50.898;10.854;2023-08-12T06:31:48;98673.75;;;16.85;100.00
65897;BME280;52677;50.898;10.854;2023-08-12T06:33:48;98674.53;;;16.86;100.00
65897;BME280;52677;50.898;10.854;2023-08-12T06:35:50;98674.09;;;16.88;100.00
65897;BME280;52677;50.898;10.854;2023-08-12T06:37:51;98665.34;;;16.89;100.00
65897;BME280;52677;50.898;10.854;2023-08-12T06:39:52;98664.91;;;16.91;100.00
65897;BME280;52677;50.898;10.854;2023-08-12T06:41:52;98663.25;;;16.97;100.00
65897;BME280;52677;50.898;10.854;2023-08-12T06:43:52;98654.03;;;17.00;100.00
65897;BME280;52677;50.898;10.854;2023-08-12T06:45:52;98659.56;;;17.03;100.00
65897;BME280;52677;50.898;10.854;2023-08-12T06:47:53;98663.16;;;17.04;100.00
65897;BME280;52677;50.898;10.854;2023-08-12T06:49:53;98650.78;;;17.05;100.00
65897;BME280;52677;50.898;10.854;2023-08-12T06:51:53;98660.34;;;17.07;100.00
65897;BME280;52677;50.898;10.854;2023-08-12T06:53:54;98654.38;;;17.05;100.00
65897;BME280;52677;50.898;10.854;2023-08-12T06:55:54;98651.16;;;17.07;100.00
65897;BME280;52677;50.898;10.854;2023-08-12T06:57:54;98655.91;;;17.10;100.00
65897;BME280;52677;50.898;10.854;2023-08-12T06:59:55;98648.66;;;17.16;100.00
65897;BME280;52677;50.898;10.854;2023-08-12T07:01:55;98645.41;;;17.21;100.00
65897;BME280;52677;50.898;10.854;2023-08-12T07:03:56;98649.72;;;17.26;100.00
65897;BME280;52677;50.898;10.854;2023-08-12T07:05:56;98655.66;;;17.31;100.00
65897;BME280;52677;50.898;10.854;2023-08-12T07:07:57;98656.38;;;17.35;100.00
65897;BME280;52677;50.898;10.854;2023-08-12T07:09:57;98639.94;;;17.41;100.00
65897;BME280;52677;50.898;10.854;2023-08-12T07:11:57;98654.63;;;17.49;100.00
65897;BME280;52677;50.898;10.854;2023-08-12T07:13:58;98658.16;;;17.53;100.00
65897;BME280;52677;50.898;10.854;2023-08-12T07:15:58;98664.06;;;17.58;100.00
65897;BME280;52677;50.898;10.854;2023-08-12T07:17:59;98668.78;;;17.65;100.00
65897;BME280;52677;50.898;10.854;2023-08-12T07:19:59;98663.53;;;17.71;100.00
65897;BME280;52677;50.898;10.854;2023-08-12T07:22:00;98673.00;;;17.80;100.00
65897;BME280;52677;50.898;10.854;2023-08-12T07:24:00;98668.91;;;17.85;100.00
65897;BME280;52677;50.898;10.854;2023-08-12T07:26:00;98666.44;;;17.90;100.00
65897;BME280;52677;50.898;10.854;2023-08-12T07:28:01;98673.19;;;17.93;100.00
65897;BME280;52677;50.898;10.854;2023-08-12T07:30:01;98670.41;;;17.93;100.00
65897;BME280;52677;50.898;10.854;2023-08-12T07:32:01;98673.94;;;17.97;100.00
65897;BME280;52677;50.898;10.854;2023-08-12T07:34:02;98674.75;;;17.98;100.00
65897;BME280;52677;50.898;10.854;2023-08-12T07:36:02;98671.44;;;18.03;100.00
65897;BME280;52677;50.898;10.854;2023-08-12T07:38:03;98668.19;;;18.08;100.00
65897;BME280;52677;50.898;10.854;2023-08-12T07:40:03;98669.34;;;18.10;100.00
65897;BME280;52677;50.898;10.854;2023-08-12T07:42:04;98666.09;;;18.12;100.00
65897;BME280;52677;50.898;10.854;2023-08-12T07:44:04;98679.63;;;18.17;100.00
65897;BME280;52677;50.898;10.854;2023-08-12T07:46:05;98676.47;;;18.15;100.00
65897;BME280;52677;50.898;10.854;2023-08-12T07:48:05;98677.19;;;18.19;100.00
65897;BME280;52677;50.898;10.854;2023-08-12T07:50:06;98679.59;;;18.20;100.00
65897;BME280;52677;50.898;10.854;2023-08-12T07:52:07;98671.19;;;18.20;100.00
65897;BME280;52677;50.898;10.854;2023-08-12T07:54:07;98673.50;;;18.25;100.00
65897;BME280;52677;50.898;10.854;2023-08-12T07:56:07;98669.03;;;18.28;100.00
65897;BME280;52677;50.898;10.854;2023-08-12T07:58:08;98659.81;;;18.31;100.00
65897;BME280;52677;50.898;10.854;2023-08-12T08:00:09;98654.94;;;18.35;100.00
65897;BME280;52677;50.898;10.854;2023-08-12T08:02:10;98651.69;;;18.37;100.00
65897;BME280;52677;50.898;10.854;2023-08-12T08:04:10;98648.53;;;18.35;100.00
65897;BME280;52677;50.898;10.854;2023-08-12T08:06:10;98652.44;;;18.41;100.00
65897;BME280;52677;50.898;10.854;2023-08-12T08:08:11;98642.94;;;18.35;100.00
65897;BME280;52677;50.898;10.854;2023-08-12T08:10:12;98648.84;;;18.40;100.00
65897;BME280;52677;50.898;10.854;2023-08-12T08:12:13;98656.91;;;18.38;100.00
65897;BME280;52677;50.898;10.854;2023-08-12T08:14:13;98658.47;;;18.39;100.00
65897;BME280;52677;50.898;10.854;2023-08-12T08:16:13;98644.41;;;18.43;100.00
65897;BME280;52677;50.898;10.854;2023-08-12T08:18:14;98651.09;;;18.49;100.00
65897;BME280;52677;50.898;10.854;2023-08-12T08:20:14;98643.41;;;18.53;100.00
65897;BME280;52677;50.898;10.854;2023-08-12T08:22:14;98645.00;;;18.54;100.00
65897;BME280;52677;50.898;10.854;2023-08-12T08:24:15;98644.94;;;18.58;100.00
65897;BME280;52677;50.898;10.854;2023-08-12T08:26:15;98657.25;;;18.64;100.00
65897;BME280;52677;50.898;10.854;2023-08-12T08:28:16;98648.00;;;18.67;100.00
65897;BME280;52677;50.898;10.854;2023-08-12T08:30:16;98647.13;;;18.70;100.00
65897;BME280;52677;50.898;10.854;2023-08-12T08:32:16;98648.66;;;18.74;100.00
65897;BME280;52677;50.898;10.854;2023-08-12T08:34:16;98645.38;;;18.79;100.00
65897;BME280;52677;50.898;10.854;2023-08-12T08:36:17;98644.88;;;18.85;100.00
65897;BME280;52677;50.898;10.854;2023-08-12T08:38:18;98633.00;;;18.77;100.00
65897;BME280;52677;50.898;10.854;2023-08-12T08:40:18;98616.59;;;18.75;100.00
65897;BME280;52677;50.898;10.854;2023-08-12T08:42:20;98603.19;;;18.87;100.00
65897;BME280;52677;50.898;10.854;2023-08-12T08:44:22;98603.31;;;18.99;100.00
65897;BME280;52677;50.898;10.854;2023-08-12T08:46:22;98610.72;;;19.09;100.00
65897;BME280;52677;50.898;10.854;2023-08-12T08:48:23;98611.31;;;19.21;100.00
65897;BME280;52677;50.898;10.854;2023-08-12T08:50:24;98609.41;;;19.34;100.00
65897;BME280;52677;50.898;10.854;2023-08-12T08:52:25;98610.25;;;19.51;100.00
65897;BME280;52677;50.898;10.854;2023-08-12T08:54:27;98610.31;;;19.67;100.00
65897;BME280;52677;50.898;10.854;2023-08-12T08:56:27;98611.84;;;19.88;100.00
65897;BME280;52677;50.898;10.854;2023-08-12T08:58:28;98619.81;;;20.22;100.00
65897;BME280;52677;50.898;10.854;2023-08-12T09:00:28;98624.06;;;20.46;100.00
65897;BME280;52677;50.898;10.854;2023-08-12T09:02:29;98620.41;;;20.62;100.00
65897;BME280;52677;50.898;10.854;2023-08-12T09:04:30;98627.78;;;20.72;100.00
65897;BME280;52677;50.898;10.854;2023-08-12T09:06:32;98629.94;;;20.81;100.00
65897;BME280;52677;50.898;10.854;2023-08-12T09:08:34;98642.59;;;20.89;100.00
65897;BME280;52677;50.898;10.854;2023-08-12T09:10:35;98633.25;;;20.92;100.00
65897;BME280;52677;50.898;10.854;2023-08-12T09:12:36;98630.94;;;21.03;100.00
65897;BME280;52677;50.898;10.854;2023-08-12T09:14:37;98627.16;;;21.10;100.00
65897;BME280;52677;50.898;10.854;2023-08-12T09:16:37;98633.69;;;21.20;100.00
65897;BME280;52677;50.898;10.854;2023-08-12T09:18:38;98617.03;;;21.25;100.00
65897;BME280;52677;50.898;10.854;2023-08-12T09:20:38;98625.63;;;21.35;100.00
65897;BME280;52677;50.898;10.854;2023-08-12T09:22:42;98622.28;;;21.40;100.00
65897;BME280;52677;50.898;10.854;2023-08-12T09:24:42;98616.97;;;21.42;100.00
65897;BME280;52677;50.898;10.854;2023-08-12T09:26:43;98617.69;;;21.58;100.00
65897;BME280;52677;50.898;10.854;2023-08-12T09:28:44;98607.66;;;21.83;100.00
65897;BME280;52677;50.898;10.854;2023-08-12T09:30:51;98611.03;;;21.91;100.00
65897;BME280;52677;50.898;10.854;2023-08-12T09:33:02;98610.72;;;22.01;100.00
65897;BME280;52677;50.898;10.854;2023-08-12T09:35:04;98613.88;;;22.03;100.00
65897;BME280;52677;50.898;10.854;2023-08-12T09:37:06;98605.19;;;22.23;100.00
65897;BME280;52677;50.898;10.854;2023-08-12T09:39:07;98617.78;;;22.44;100.00
65897;BME280;52677;50.898;10.854;2023-08-12T09:41:08;98607.13;;;22.61;100.00
65897;BME280;52677;50.898;10.854;2023-08-12T09:43:09;98605.38;;;22.76;100.00
65897;BME280;52677;50.898;10.854;2023-08-12T09:45:11;98591.56;;;22.91;100.00
65897;BME280;52677;50.898;10.854;2023-08-12T09:47:12;98598.88;;;23.01;100.00
65897;BME280;52677;50.898;10.854;2023-08-12T09:49:14;98602.31;;;23.05;100.00
65897;BME280;52677;50.898;10.854;2023-08-12T09:51:17;98590.19;;;23.17;100.00
65897;BME280;52677;50.898;10.854;2023-08-12T09:53:17;98584.47;;;23.30;100.00
65897;BME280;52677;50.898;10.854;2023-08-12T09:55:22;98581.09;;;23.44;100.00
65897;BME280;52677;50.898;10.854;2023-08-12T09:57:25;98573.91;;;23.52;100.00
65897;BME280;52677;50.898;10.854;2023-08-12T09:59:31;98581.19;;;23.63;100.00
65897;BME280;52677;50.898;10.854;2023-08-12T10:01:32;98575.91;;;23.74;100.00
65897;BME280;52677;50.898;10.854;2023-08-12T10:03:33;98582.25;;;23.87;100.00
65897;BME280;52677;50.898;10.854;2023-08-12T10:05:35;98578.50;;;23.99;100.00
65897;BME280;52677;50.898;10.854;2023-08-12T10:07:36;98583.56;;;24.14;100.00
65897;BME280;52677;50.898;10.854;2023-08-12T10:09:37;98573.84;;;24.24;100.00
65897;BME280;52677;50.898;10.854;2023-08-12T10:11:38;98572.16;;;24.26;100.00
65897;BME280;52677;50.898;10.854;2023-08-12T10:13:43;98567.88;;;24.22;100.00
65897;BME280;52677;50.898;10.854;2023-08-12T10:15:43;98574.78;;;24.21;100.00
65897;BME280;52677;50.898;10.854;2023-08-12T10:17:44;98567.56;;;24.20;100.00
65897;BME280;52677;50.898;10.854;2023-08-12T10:19:44;98568.03;;;24.18;100.00
65897;BME280;52677;50.898;10.854;2023-08-12T10:21:47;98562.88;;;24.17;100.00
65897;BME280;52677;50.898;10.854;2023-08-12T10:23:50;98559.38;;;24.13;100.00